Time;durP1;ratioP1;P1;durP2;ratioP2;P2;SDS_P1;SDS_P2;PMS_P1;PMS_P2;Temp;Humidity;BMP_temperature;BMP_pressure;BME280_temperature;BME280_humidity;BME280_pressure;Samples;Min_cycle;Max_cycle;Signal;HPM_P1;HPM_P2
2024/04/17 00:00:38;;;;;;;1.17;1.00;;;9.80;99.90;;;;;;5454186;26;20463;-77
2024/04/17 00:03:08;;;;;;;1.00;1.00;;;9.70;99.90;;;;;;5464080;26;20463;-81
2024/04/17 00:05:35;;;;;;;0.97;0.97;;;9.60;99.90;;;;;;5461463;26;20823;-78
2024/04/17 00:08:06;;;;;;;1.10;1.10;;;9.70;99.90;;;;;;5467024;26;20481;-75
2024/04/17 00:10:35;;;;;;;0.90;0.90;;;9.70;99.90;;;;;;5463698;26;20490;-77
2024/04/17 00:13:06;;;;;;;1.13;1.03;;;9.60;99.90;;;;;;5462605;26;20474;-77
2024/04/17 00:15:33;;;;;;;1.10;1.10;;;9.50;99.90;;;;;;5474451;26;20477;-77
2024/04/17 00:18:03;;;;;;;1.00;1.00;;;9.50;99.90;;;;;;5468067;26;20463;-77
2024/04/17 00:20:30;;;;;;;1.50;1.10;;;9.50;99.90;;;;;;5462365;26;20472;-78
2024/04/17 00:23:00;;;;;;;1.17;1.17;;;9.50;99.90;;;;;;5465118;26;20471;-77
2024/04/17 00:25:28;;;;;;;1.00;1.00;;;9.50;99.90;;;;;;5468700;26;20539;-79
2024/04/17 00:28:00;;;;;;;2.17;1.10;;;9.50;99.90;;;;;;5472056;26;20467;-79
2024/04/17 00:30:27;;;;;;;1.27;1.27;;;9.60;99.90;;;;;;5469711;26;20506;-79
2024/04/17 00:32:57;;;;;;;1.30;1.20;;;9.60;99.90;;;;;;5467028;26;20462;-80
2024/04/17 00:35:25;;;;;;;1.33;1.10;;;9.70;99.90;;;;;;5468757;26;21137;-82
2024/04/17 00:37:54;;;;;;;1.00;1.00;;;9.70;99.90;;;;;;5462643;26;20486;-81
2024/04/17 00:40:22;;;;;;;1.20;1.20;;;9.70;99.90;;;;;;5463813;26;21128;-77
2024/04/17 00:42:52;;;;;;;1.10;1.10;;;9.60;99.90;;;;;;5465175;26;20477;-80
2024/04/17 00:45:29;;;;;;;1.10;1.10;;;9.70;99.90;;;;;;5470505;26;20476;-77
2024/04/17 00:47:59;;;;;;;1.10;1.10;;;9.60;99.90;;;;;;5469556;26;20458;-76
2024/04/17 00:50:26;;;;;;;1.10;1.10;;;9.60;99.90;;;;;;5462275;26;20464;-77
2024/04/17 00:52:58;;;;;;;1.10;1.10;;;9.60;99.90;;;;;;5465137;26;20516;-79
2024/04/17 00:55:26;;;;;;;1.00;1.00;;;9.60;99.90;;;;;;5464070;26;20467;-78
2024/04/17 00:57:57;;;;;;;1.10;1.10;;;9.60;99.90;;;;;;5458625;26;20454;-80
2024/04/17 01:00:27;;;;;;;1.00;1.00;;;9.50;99.90;;;;;;5468787;26;20463;-78
2024/04/17 01:02:57;;;;;;;1.10;1.10;;;9.50;99.90;;;;;;5465377;26;20474;-77
2024/04/17 01:05:25;;;;;;;1.00;1.00;;;9.40;99.90;;;;;;5467164;26;20472;-77
2024/04/17 01:07:55;;;;;;;1.20;1.20;;;9.50;99.90;;;;;;5463859;26;20512;-76
2024/04/17 01:10:22;;;;;;;1.07;1.07;;;9.60;99.90;;;;;;5467677;26;20571;-80
2024/04/17 01:12:52;;;;;;;1.10;1.10;;;9.60;99.90;;;;;;5463665;26;20477;-78
2024/04/17 01:15:21;;;;;;;1.17;1.17;;;9.60;99.90;;;;;;5462597;26;20538;-79
2024/04/17 01:17:54;;;;;;;1.10;1.00;;;9.50;99.90;;;;;;5468383;26;20471;-81
2024/04/17 01:20:22;;;;;;;1.13;1.13;;;9.50;99.90;;;;;;5460231;26;21365;-81
2024/04/17 01:22:51;;;;;;;1.10;1.10;;;9.50;99.90;;;;;;5465986;26;20468;-78
2024/04/17 01:25:22;;;;;;;1.00;1.00;;;9.50;99.90;;;;;;5467942;26;20591;-79
2024/04/17 01:27:52;;;;;;;1.10;1.10;;;9.60;99.90;;;;;;5463619;26;20459;-80
2024/04/17 01:30:20;;;;;;;1.60;1.27;;;9.60;99.90;;;;;;5467675;26;20478;-77
2024/04/17 01:32:49;;;;;;;0.90;0.90;;;9.60;99.90;;;;;;5465733;26;20590;-78
2024/04/17 01:35:17;;;;;;;0.90;0.90;;;9.50;99.90;;;;;;5467773;26;21123;-78
2024/04/17 01:37:47;;;;;;;0.97;0.97;;;9.50;99.90;;;;;;5451791;26;20487;-77
2024/04/17 01:40:14;;;;;;;1.00;1.00;;;9.40;99.90;;;;;;5465434;26;20458;-78
2024/04/17 01:42:47;;;;;;;0.90;0.90;;;9.40;99.90;;;;;;5472711;26;20505;-78
2024/04/17 01:45:15;;;;;;;1.03;1.03;;;9.40;99.90;;;;;;5469792;26;20455;-80
2024/04/17 01:47:44;;;;;;;0.90;0.90;;;9.40;99.90;;;;;;5466508;26;21038;-78
2024/04/17 01:50:12;;;;;;;0.90;0.90;;;9.40;99.90;;;;;;5461962;26;20480;-76
2024/04/17 01:52:42;;;;;;;0.90;0.90;;;9.40;99.90;;;;;;5468852;26;20521;-82
2024/04/17 01:55:09;;;;;;;0.90;0.90;;;9.30;99.90;;;;;;5448692;26;20471;-79
2024/04/17 01:57:39;;;;;;;0.90;0.90;;;9.40;99.90;;;;;;5463231;26;20523;-78
2024/04/17 02:00:10;;;;;;;0.90;0.90;;;9.40;99.90;;;;;;5459686;26;20516;-76
2024/04/17 02:02:40;;;;;;;1.77;0.90;;;9.40;99.90;;;;;;5465460;26;20475;-80
2024/04/17 02:05:08;;;;;;;1.10;1.10;;;9.40;99.90;;;;;;5466766;26;20620;-79
2024/04/17 02:07:39;;;;;;;1.03;0.90;;;9.50;99.90;;;;;;5466142;26;20451;-76
2024/04/17 02:10:06;;;;;;;1.00;1.00;;;9.40;99.90;;;;;;5461219;26;20824;-77
2024/04/17 02:12:36;;;;;;;1.00;0.90;;;9.40;99.90;;;;;;5460267;26;20528;-78
2024/04/17 02:15:04;;;;;;;1.00;1.00;;;9.50;99.90;;;;;;5467936;25;20362;-77
2024/04/17 02:17:36;;;;;;;0.90;0.90;;;9.40;99.90;;;;;;5469417;26;20281;-76
2024/04/17 02:20:05;;;;;;;0.90;0.90;;;9.30;99.90;;;;;;5467319;26;20913;-75
2024/04/17 02:22:35;;;;;;;1.00;1.00;;;9.40;99.90;;;;;;5463750;26;20466;-75
2024/04/17 02:25:03;;;;;;;1.00;1.00;;;9.30;99.90;;;;;;5470021;26;20471;-77
2024/04/17 02:27:33;;;;;;;1.10;1.00;;;9.40;99.90;;;;;;5469168;26;20474;-76
2024/04/17 02:30:00;;;;;;;1.00;1.00;;;9.50;99.90;;;;;;5468148;26;20513;-78
2024/04/17 02:32:30;;;;;;;1.00;1.00;;;9.40;99.90;;;;;;5469107;26;20470;-76
2024/04/17 02:35:00;;;;;;;0.90;0.90;;;9.40;99.90;;;;;;5463786;26;20480;-79
2024/04/17 02:37:30;;;;;;;1.00;1.00;;;9.30;99.90;;;;;;5465632;26;20466;-77
2024/04/17 02:39:58;;;;;;;0.90;0.90;;;9.30;99.90;;;;;;5472405;26;20521;-79
2024/04/17 02:42:27;;;;;;;0.90;0.90;;;9.30;99.90;;;;;;5473650;26;20466;-76
2024/04/17 02:44:55;;;;;;;0.90;0.90;;;9.30;99.90;;;;;;5467140;26;20564;-81
2024/04/17 02:47:24;;;;;;;0.90;0.90;;;9.20;99.90;;;;;;5470185;26;20522;-78
2024/04/17 02:49:52;;;;;;;0.90;0.90;;;9.20;99.90;;;;;;5472021;26;20534;-76
2024/04/17 02:52:24;;;;;;;0.90;0.90;;;9.20;99.90;;;;;;5465585;26;21275;-76
2024/04/17 02:54:52;;;;;;;0.90;0.90;;;9.20;99.90;;;;;;5469443;26;20550;-75
2024/04/17 02:57:21;;;;;;;0.93;0.93;;;9.20;99.90;;;;;;5470682;26;22831;-79
2024/04/17 02:59:50;;;;;;;1.00;1.00;;;9.20;99.90;;;;;;5460772;26;20481;-80
2024/04/17 03:02:20;;;;;;;0.93;0.93;;;9.20;99.90;;;;;;5466870;26;20828;-77
2024/04/17 03:04:47;;;;;;;1.00;1.00;;;9.10;99.90;;;;;;5473856;26;20537;-78
2024/04/17 03:07:18;;;;;;;1.33;1.07;;;9.10;99.90;;;;;;5467506;26;20615;-78
2024/04/17 03:09:50;;;;;;;0.90;0.90;;;9.10;99.90;;;;;;5471020;26;21355;-77
2024/04/17 03:12:20;;;;;;;1.00;1.00;;;9.10;99.90;;;;;;5464079;26;20477;-76
2024/04/17 03:14:47;;;;;;;0.90;0.90;;;9.10;99.90;;;;;;5465142;26;20572;-76
2024/04/17 03:17:17;;;;;;;1.20;1.10;;;9.10;99.90;;;;;;5463289;26;20489;-77
2024/04/17 03:19:45;;;;;;;1.10;1.10;;;9.10;99.90;;;;;;5467706;26;20532;-75
2024/04/17 03:22:15;;;;;;;1.00;1.00;;;9.00;99.90;;;;;;5471255;26;20508;-78
2024/04/17 03:24:42;;;;;;;1.10;1.10;;;9.00;99.90;;;;;;5472534;26;20472;-77
2024/04/17 03:27:15;;;;;;;1.00;1.00;;;9.10;99.90;;;;;;5472272;26;20515;-75
2024/04/17 03:29:42;;;;;;;1.10;1.10;;;9.00;99.90;;;;;;5468716;26;20550;-78
2024/04/17 03:32:12;;;;;;;1.00;1.00;;;9.00;99.90;;;;;;5466324;26;20559;-75
2024/04/17 03:34:39;;;;;;;1.10;1.10;;;9.10;99.90;;;;;;5470890;26;20571;-78
2024/04/17 03:37:11;;;;;;;1.00;1.00;;;9.20;99.90;;;;;;5464933;26;20473;-75
2024/04/17 03:39:40;;;;;;;1.00;1.00;;;9.20;99.90;;;;;;5466633;26;20469;-74
2024/04/17 03:42:10;;;;;;;1.00;1.00;;;9.20;99.90;;;;;;5470247;26;20450;-79
2024/04/17 03:44:43;;;;;;;1.20;1.10;;;9.10;99.90;;;;;;5468509;26;21079;-78
2024/04/17 03:47:13;;;;;;;1.00;1.00;;;8.90;99.90;;;;;;5469623;26;20525;-76
2024/04/17 03:49:40;;;;;;;1.00;1.00;;;9.00;99.90;;;;;;5466762;26;20529;-75
2024/04/17 03:52:10;;;;;;;0.90;0.90;;;8.90;99.90;;;;;;5467900;26;20458;-78
2024/04/17 03:54:37;;;;;;;0.90;0.90;;;8.90;99.90;;;;;;5465269;26;20538;-77
2024/04/17 03:57:07;;;;;;;1.00;1.00;;;8.80;99.90;;;;;;5465826;26;20454;-76
2024/04/17 03:59:34;;;;;;;1.10;1.00;;;8.70;99.90;;;;;;5467984;26;20892;-75
2024/04/17 04:02:07;;;;;;;0.90;0.90;;;8.60;99.90;;;;;;5465824;26;21181;-76
2024/04/17 04:04:39;;;;;;;1.10;1.10;;;8.50;99.90;;;;;;5471378;26;20473;-77
2024/04/17 04:07:09;;;;;;;0.90;0.90;;;8.60;99.90;;;;;;5475429;26;23567;-77
2024/04/17 04:09:36;;;;;;;0.90;0.90;;;8.60;99.90;;;;;;5469139;26;20484;-77
2024/04/17 04:12:07;;;;;;;1.00;1.00;;;8.60;99.90;;;;;;5473135;26;20580;-77
2024/04/17 04:14:34;;;;;;;0.97;0.97;;;8.60;99.90;;;;;;5471600;26;21079;-78
2024/04/17 04:17:07;;;;;;;2.33;1.07;;;8.60;99.90;;;;;;5470015;26;20469;-76
2024/04/17 04:19:34;;;;;;;1.20;1.10;;;8.60;99.90;;;;;;5467280;26;20467;-76
2024/04/17 04:22:04;;;;;;;1.00;1.00;;;8.60;99.90;;;;;;5461966;26;20525;-78
2024/04/17 04:24:31;;;;;;;1.10;1.10;;;8.60;99.90;;;;;;5469675;26;20526;-77
2024/04/17 04:27:01;;;;;;;1.10;1.00;;;8.60;99.90;;;;;;5464699;26;20466;-76
2024/04/17 04:29:28;;;;;;;1.10;1.10;;;8.60;99.90;;;;;;5469004;26;20515;-75
2024/04/17 04:31:58;;;;;;;1.00;1.00;;;8.60;99.90;;;;;;5463900;26;20472;-78
2024/04/17 04:34:28;;;;;;;1.30;1.20;;;8.60;99.90;;;;;;5470398;26;20354;-74
2024/04/17 04:36:58;;;;;;;1.00;1.00;;;8.50;99.90;;;;;;5469617;25;20232;-78
2024/04/17 04:39:25;;;;;;;1.50;1.40;;;8.60;99.90;;;;;;5465313;26;20521;-73
2024/04/17 04:41:55;;;;;;;1.10;1.10;;;8.60;99.90;;;;;;5464571;26;20543;-76
2024/04/17 04:44:22;;;;;;;1.30;1.10;;;8.70;99.90;;;;;;5468386;26;21488;-74
2024/04/17 04:46:56;;;;;;;1.47;1.40;;;8.60;99.90;;;;;;5464915;26;20458;-78
2024/04/17 04:49:23;;;;;;;1.20;1.20;;;8.70;99.90;;;;;;5464529;26;20568;-76
2024/04/17 04:51:56;;;;;;;1.10;1.10;;;8.60;99.90;;;;;;5460872;26;20470;-77
2024/04/17 04:54:23;;;;;;;1.30;1.30;;;8.70;99.90;;;;;;5458406;26;20462;-74
2024/04/17 04:56:53;;;;;;;1.70;1.60;;;8.70;99.90;;;;;;5457591;26;20522;-76
2024/04/17 04:59:21;;;;;;;1.60;1.50;;;8.70;99.90;;;;;;5467665;26;20481;-75
2024/04/17 05:01:51;;;;;;;1.60;1.50;;;8.60;99.90;;;;;;5454637;26;20519;-74
2024/04/17 05:04:19;;;;;;;1.67;1.57;;;8.70;99.90;;;;;;5464425;26;20475;-77
2024/04/17 05:06:49;;;;;;;1.73;1.63;;;8.70;99.90;;;;;;5460490;26;20545;-79
2024/04/17 05:09:19;;;;;;;1.60;1.50;;;8.70;99.90;;;;;;5464000;25;20529;-76
2024/04/17 05:11:50;;;;;;;2.03;1.60;;;8.70;99.90;;;;;;5463425;26;20481;-80
2024/04/17 05:14:17;;;;;;;1.73;1.63;;;8.70;99.90;;;;;;5473495;26;20468;-75
2024/04/17 05:16:47;;;;;;;1.83;1.73;;;8.70;99.90;;;;;;5467434;25;20459;-73
2024/04/17 05:19:14;;;;;;;1.70;1.60;;;8.80;99.90;;;;;;5466483;26;20462;-74
2024/04/17 05:21:44;;;;;;;1.93;1.83;;;8.70;99.90;;;;;;5461133;26;20521;-75
2024/04/17 05:24:11;;;;;;;2.30;2.10;;;8.70;99.90;;;;;;5459122;26;21046;-75
2024/04/17 05:26:44;;;;;;;2.77;2.67;;;8.70;99.90;;;;;;5461987;26;20840;-76
2024/04/17 05:29:11;;;;;;;2.60;2.40;;;8.70;99.90;;;;;;5465009;26;20466;-74
2024/04/17 05:31:41;;;;;;;2.13;2.00;;;8.70;99.90;;;;;;5469671;26;20474;-74
2024/04/17 05:34:09;;;;;;;2.00;1.87;;;8.70;99.90;;;;;;5463840;26;21318;-73
2024/04/17 05:36:38;;;;;;;2.13;1.90;;;8.70;99.90;;;;;;5468445;26;20461;-74
2024/04/17 05:39:06;;;;;;;3.83;3.53;;;8.70;99.90;;;;;;5476898;26;20498;-75
2024/04/17 05:41:36;;;;;;;2.80;2.70;;;8.70;99.90;;;;;;5471525;26;20550;-75
2024/04/17 05:44:06;;;;;;;3.50;3.30;;;8.70;99.90;;;;;;5470152;26;20469;-76
2024/04/17 05:46:35;;;;;;;4.87;3.07;;;8.70;99.90;;;;;;5468496;26;20474;-73
2024/04/17 05:49:03;;;;;;;3.67;3.37;;;8.70;99.90;;;;;;5472134;26;21170;-74
2024/04/17 05:51:33;;;;;;;3.53;3.33;;;8.70;1.00;;;;;;5466155;26;20465;-74
2024/04/17 05:54:03;;;;;;;4.40;4.10;;;8.80;99.90;;;;;;5465876;26;20526;-73
2024/04/17 05:56:30;;;;;;;4.07;3.87;;;8.70;99.90;;;;;;5466386;26;20471;-76
2024/04/17 05:59:00;;;;;;;4.60;4.30;;;8.80;99.90;;;;;;5472272;26;20458;-74
2024/04/17 06:01:30;;;;;;;4.73;4.10;;;8.80;99.90;;;;;;5468800;26;21067;-74
2024/04/17 06:04:00;;;;;;;5.60;5.20;;;8.80;1.00;;;;;;5469302;26;20458;-76
2024/04/17 06:06:27;;;;;;;5.00;4.70;;;8.80;99.90;;;;;;5468204;26;20486;-75
2024/04/17 06:08:57;;;;;;;5.03;4.73;;;8.90;1.00;;;;;;5462211;26;21128;-74
2024/04/17 06:11:25;;;;;;;5.40;4.90;;;8.80;1.00;;;;;;5469077;26;20444;-73
2024/04/17 06:13:55;;;;;;;3.70;3.40;;;8.90;99.90;;;;;;5456502;26;20588;-78
2024/04/17 06:16:22;;;;;;;4.23;3.93;;;8.80;99.90;;;;;;5464870;26;20459;-73
2024/04/17 06:18:55;;;;;;;4.10;3.80;;;8.80;99.90;;;;;;5466398;26;20514;-73
2024/04/17 06:21:22;;;;;;;7.60;4.70;;;8.80;99.90;;;;;;5467212;26;20507;-73
2024/04/17 06:23:52;;;;;;;4.53;4.17;;;8.80;99.90;;;;;;5468369;26;20523;-73
2024/04/17 06:26:19;;;;;;;4.20;3.87;;;8.80;99.90;;;;;;5474221;26;20465;-75
2024/04/17 06:28:49;;;;;;;5.00;4.60;;;8.80;99.90;;;;;;5467407;26;20457;-74
2024/04/17 06:31:17;;;;;;;5.47;4.40;;;8.80;99.90;;;;;;5473007;26;20445;-74
2024/04/17 06:33:47;;;;;;;4.77;4.27;;;8.80;99.90;;;;;;5472953;26;20613;-75
2024/04/17 06:36:17;;;;;;;5.00;4.60;;;8.80;99.90;;;;;;5468070;26;20517;-76
2024/04/17 06:38:47;;;;;;;4.60;4.27;;;8.70;99.90;;;;;;5463371;26;21038;-75
2024/04/17 06:41:14;;;;;;;4.87;4.47;;;8.80;99.90;;;;;;5471931;26;20453;-72
2024/04/17 06:43:44;;;;;;;6.57;5.90;;;8.80;99.90;;;;;;5466941;26;20470;-77
2024/04/17 06:46:11;;;;;;;4.37;4.00;;;8.80;99.90;;;;;;5468966;26;20466;-78
2024/04/17 06:48:41;;;;;;;6.13;5.40;;;8.80;99.90;;;;;;5469947;26;20544;-72
2024/04/17 06:51:09;;;;;;;5.30;4.80;;;8.90;99.90;;;;;;5469817;26;20463;-77
2024/04/17 06:53:41;;;;;;;4.53;4.23;;;9.00;99.90;;;;;;5465504;26;20589;-77
2024/04/17 06:56:11;;;;;;;3.57;3.27;;;8.90;99.90;;;;;;5464443;26;21084;-72
2024/04/17 06:58:38;;;;;;;2.80;2.60;;;8.90;99.90;;;;;;5462873;26;20517;-75
2024/04/17 07:01:08;;;;;;;2.90;2.70;;;9.00;99.90;;;;;;5469606;26;20473;-75
2024/04/17 07:03:36;;;;;;;2.80;2.60;;;8.90;99.90;;;;;;5471902;26;21071;-75
2024/04/17 07:06:07;;;;;;;3.07;2.87;;;8.90;99.90;;;;;;5465912;26;20477;-72
2024/04/17 07:08:34;;;;;;;3.33;3.13;;;8.90;99.90;;;;;;5460636;26;20461;-76
2024/04/17 07:11:07;;;;;;;4.07;3.87;;;8.90;99.90;;;;;;5469927;26;20571;-74
2024/04/17 07:13:34;;;;;;;3.47;3.27;;;9.00;99.90;;;;;;5459801;26;20477;-73
2024/04/17 07:16:04;;;;;;;4.30;3.90;;;9.00;99.90;;;;;;5492595;25;20469;-74
2024/04/17 07:18:31;;;;;;;4.23;3.93;;;9.00;99.90;;;;;;5461383;26;20519;-73
2024/04/17 07:21:02;;;;;;;3.47;3.20;;;9.10;1.00;;;;;;5468513;26;20868;-75
2024/04/17 07:23:29;;;;;;;4.07;3.77;;;9.10;99.90;;;;;;5461655;26;20478;-77
2024/04/17 07:25:59;;;;;;;3.30;3.10;;;9.00;99.90;;;;;;5464414;26;20477;-75
2024/04/17 07:28:29;;;;;;;2.13;2.03;;;8.90;99.90;;;;;;5459326;26;20531;-75
2024/04/17 07:30:59;;;;;;;2.30;2.10;;;8.90;99.90;;;;;;5466466;26;20515;-77
2024/04/17 07:33:27;;;;;;;1.90;1.80;;;8.80;99.90;;;;;;5475873;26;20462;-73
2024/04/17 07:36:00;;;;;;;2.10;2.00;;;8.80;99.90;;;;;;5468122;26;20953;-75
2024/04/17 07:38:28;;;;;;;2.23;1.70;;;8.80;99.90;;;;;;5467908;26;20263;-75
2024/04/17 07:41:00;;;;;;;1.57;1.50;;;8.80;99.90;;;;;;5467044;26;20582;-73
2024/04/17 07:43:31;;;;;;;2.10;2.00;;;8.70;99.90;;;;;;5469895;26;20465;-77
2024/04/17 07:46:01;;;;;;;2.20;2.10;;;8.60;99.90;;;;;;5471019;26;20273;-73
2024/04/17 07:48:30;;;;;;;3.87;2.00;;;8.80;99.90;;;;;;5464335;26;20519;-74
2024/04/17 07:51:00;;;;;;;1.87;1.77;;;8.80;99.90;;;;;;5469978;26;21133;-78
2024/04/17 07:53:27;;;;;;;2.60;1.87;;;8.70;99.90;;;;;;5465241;26;20466;-75
2024/04/17 07:56:00;;;;;;;2.40;2.30;;;8.50;99.90;;;;;;5466114;26;20527;-77
2024/04/17 07:58:30;;;;;;;2.37;2.27;;;8.50;99.90;;;;;;5463242;26;20470;-78
2024/04/17 08:01:00;;;;;;;2.60;2.50;;;8.40;99.90;;;;;;5465700;26;20470;-77
2024/04/17 08:03:28;;;;;;;3.00;2.80;;;8.50;99.90;;;;;;5468254;26;20592;-75
2024/04/17 08:05:58;;;;;;;3.10;2.50;;;8.40;99.90;;;;;;5467870;26;21473;-74
2024/04/17 08:08:25;;;;;;;2.00;1.90;;;8.40;99.90;;;;;;5466246;26;20513;-76
2024/04/17 08:10:55;;;;;;;1.80;1.70;;;8.40;99.90;;;;;;5467198;26;21426;-75
2024/04/17 08:13:22;;;;;;;2.07;1.90;;;8.50;99.90;;;;;;5465684;26;20584;-74
2024/04/17 08:15:55;;;;;;;2.60;2.40;;;8.50;99.90;;;;;;5472989;26;20561;-71
2024/04/17 08:18:22;;;;;;;2.27;2.17;;;8.60;99.90;;;;;;5462778;26;20580;-76
2024/04/17 08:20:57;;;;;;;2.13;1.97;;;8.60;99.90;;;;;;5463234;26;20566;-75
2024/04/17 08:23:25;;;;;;;2.03;1.93;;;8.60;99.90;;;;;;5466382;26;21367;-75
2024/04/17 08:26:01;;;;;;;1.93;1.83;;;8.60;99.90;;;;;;5468657;26;20450;-78
2024/04/17 08:28:28;;;;;;;2.10;2.00;;;8.60;99.90;;;;;;5462504;26;20477;-74
2024/04/17 08:31:01;;;;;;;2.43;2.33;;;8.70;99.90;;;;;;5467279;26;20467;-76
2024/04/17 08:33:29;;;;;;;2.90;1.90;;;8.70;99.90;;;;;;5464011;26;20529;-72
2024/04/17 08:35:59;;;;;;;1.87;1.77;;;8.80;99.90;;;;;;5469435;26;20510;-74
2024/04/17 08:38:27;;;;;;;2.00;1.90;;;8.70;99.90;;;;;;5461985;26;21356;-76
2024/04/17 08:40:57;;;;;;;2.20;2.07;;;8.80;1.00;;;;;;5462891;26;20524;-76
2024/04/17 08:43:26;;;;;;;2.30;2.10;;;8.80;99.90;;;;;;5463770;26;20511;-75
2024/04/17 08:46:02;;;;;;;3.10;2.57;;;8.90;99.90;;;;;;5470086;26;20470;-73
2024/04/17 08:48:31;;;;;;;2.43;2.27;;;8.90;1.00;;;;;;5466909;26;20481;-73
2024/04/17 08:51:02;;;;;;;2.60;2.50;;;9.10;1.00;;;;;;5468816;26;20517;-75
2024/04/17 08:53:31;;;;;;;2.50;2.40;;;9.10;1.00;;;;;;5464869;26;21019;-75
2024/04/17 08:56:01;;;;;;;3.30;3.10;;;9.10;1.00;;;;;;5462960;26;20482;-73
2024/04/17 08:58:29;;;;;;;3.77;3.57;;;9.20;1.00;;;;;;5467600;26;20470;-76
2024/04/17 09:01:05;;;;;;;3.67;3.47;;;9.30;1.00;;;;;;5465264;26;20463;-74
2024/04/17 09:03:35;;;;;;;2.60;2.40;;;9.20;99.90;;;;;;5462536;26;20559;-76
2024/04/17 09:06:07;;;;;;;2.70;2.50;;;9.20;99.90;;;;;;5468735;26;20508;-73
2024/04/17 09:08:36;;;;;;;2.40;2.30;;;9.10;99.90;;;;;;5466643;26;20506;-75
2024/04/17 09:11:07;;;;;;;2.17;2.07;;;9.00;99.90;;;;;;5464971;26;20475;-76
2024/04/17 09:13:35;;;;;;;1.80;1.70;;;9.00;99.90;;;;;;5465555;26;20470;-72
2024/04/17 09:16:07;;;;;;;2.00;1.90;;;8.90;99.90;;;;;;5461148;26;20479;-75
2024/04/17 09:18:37;;;;;;;1.70;1.60;;;9.00;99.90;;;;;;5471668;26;20474;-73
2024/04/17 09:21:08;;;;;;;3.03;2.07;;;9.00;99.90;;;;;;5469513;26;21076;-76
2024/04/17 09:23:36;;;;;;;2.43;2.20;;;9.00;99.90;;;;;;5469468;26;20462;-74
2024/04/17 09:26:15;;;;;;;2.70;2.50;;;9.00;99.90;;;;;;5467816;26;20496;-75
2024/04/17 09:28:42;;;;;;;2.90;2.70;;;9.10;1.00;;;;;;5469861;26;20451;-74
2024/04/17 09:31:15;;;;;;;2.90;2.80;;;9.20;1.00;;;;;;5460077;26;20504;-73
2024/04/17 09:33:44;;;;;;;3.93;3.60;;;9.30;99.90;;;;;;5468216;26;20462;-75
2024/04/17 09:36:14;;;;;;;3.27;3.07;;;9.40;99.90;;;;;;5468900;26;21068;-73
2024/04/17 09:38:41;;;;;;;3.00;2.70;;;9.40;99.90;;;;;;5464712;26;21061;-76
2024/04/17 09:41:12;;;;;;;3.63;3.37;;;9.30;99.90;;;;;;5464906;26;20905;-75
2024/04/17 09:43:45;;;;;;;4.50;4.20;;;9.40;99.90;;;;;;5461176;26;22052;-77
2024/04/17 09:46:16;;;;;;;3.73;3.53;;;9.40;99.90;;;;;;5463813;26;20585;-72
2024/04/17 09:48:53;;;;;;;4.03;3.83;;;9.40;99.90;;;;;;5464662;26;20526;-74
2024/04/17 09:51:21;;;;;;;4.80;4.50;;;9.40;99.90;;;;;;5461818;26;20474;-76
2024/04/17 09:53:57;;;;;;;4.67;4.37;;;9.50;99.90;;;;;;5469441;26;21359;-73
2024/04/17 09:56:26;;;;;;;5.20;4.90;;;9.40;99.90;;;;;;5466013;26;20812;-76
2024/04/17 09:58:57;;;;;;;5.47;5.07;;;9.50;99.90;;;;;;5468278;26;20528;-78
2024/04/17 10:01:39;;;;;;;5.13;4.73;;;9.50;99.90;;;;;;5464632;26;20461;-74
2024/04/17 10:04:11;;;;;;;4.73;4.37;;;9.50;99.90;;;;;;5465675;26;20459;-76
2024/04/17 10:06:42;;;;;;;5.13;4.70;;;9.50;99.90;;;;;;5466427;26;20462;-76
2024/04/17 10:09:14;;;;;;;5.07;4.77;;;9.50;99.90;;;;;;5467716;26;20512;-75
2024/04/17 10:11:42;;;;;;;5.83;5.33;;;9.60;99.90;;;;;;5461700;26;20524;-74
2024/04/17 10:14:14;;;;;;;5.10;4.70;;;9.50;99.90;;;;;;5461360;26;20569;-74
2024/04/17 10:16:44;;;;;;;4.60;4.20;;;9.50;99.90;;;;;;5464808;26;20516;-76
2024/04/17 10:19:15;;;;;;;5.37;4.97;;;9.50;99.90;;;;;;5464297;26;20517;-77
2024/04/17 10:21:42;;;;;;;4.20;3.80;;;9.50;99.90;;;;;;5468815;26;20469;-75
2024/04/17 10:24:13;;;;;;;5.93;5.33;;;9.50;99.90;;;;;;5464522;26;20481;-73
2024/04/17 10:26:42;;;;;;;7.13;5.50;;;9.50;99.90;;;;;;5464133;26;20482;-74
2024/04/17 10:29:19;;;;;;;5.30;4.90;;;9.50;99.90;;;;;;5458016;26;20523;-75
2024/04/17 10:32:09;;;;;;;5.23;4.73;;;9.40;99.90;;;;;;5463379;26;20882;-74
2024/04/17 10:34:47;;;;;;;5.00;4.60;;;9.40;99.90;;;;;;5463195;26;20478;-75
2024/04/17 10:37:17;;;;;;;4.23;3.83;;;9.50;99.90;;;;;;5463767;26;20469;-76
2024/04/17 10:39:49;;;;;;;5.20;4.70;;;9.70;1.00;;;;;;5463339;26;20462;-73
2024/04/17 10:42:17;;;;;;;5.00;4.37;;;9.80;99.90;;;;;;5463848;26;20531;-76
2024/04/17 10:44:49;;;;;;;5.07;4.67;;;9.90;99.90;;;;;;5466601;26;20534;-75
2024/04/17 10:47:22;;;;;;;7.70;5.30;;;9.90;99.90;;;;;;5460325;26;20552;-74
2024/04/17 10:49:58;;;;;;;5.70;5.20;;;10.00;99.90;;;;;;5464438;26;20549;-75
2024/04/17 10:52:29;;;;;;;5.27;4.87;;;10.10;99.90;;;;;;5466268;26;20518;-75
2024/04/17 10:54:59;;;;;;;7.00;5.10;;;10.10;99.90;;;;;;5464790;26;20467;-76
2024/04/17 10:57:28;;;;;;;6.10;5.10;;;10.00;99.90;;;;;;5464729;26;20515;-76
2024/04/17 10:59:58;;;;;;;5.70;5.20;;;9.90;99.90;;;;;;5467680;26;20470;-78
2024/04/17 11:02:28;;;;;;;5.50;5.00;;;9.90;99.90;;;;;;5461878;26;20502;-76
2024/04/17 11:04:59;;;;;;;6.00;5.30;;;9.90;99.90;;;;;;5465626;26;20509;-74
2024/04/17 11:07:27;;;;;;;6.47;5.97;;;9.90;99.90;;;;;;5468387;26;20563;-73
2024/04/17 11:09:58;;;;;;;6.97;5.67;;;10.10;99.90;;;;;;5470577;26;20478;-76
2024/04/17 11:12:26;;;;;;;6.07;5.53;;;10.40;1.00;;;;;;5468075;26;20525;-77
2024/04/17 11:15:02;;;;;;;5.37;4.93;;;10.50;99.90;;;;;;5462447;26;20465;-75
2024/04/17 11:17:32;;;;;;;8.50;5.67;;;10.70;99.90;;;;;;5473326;26;20471;-75
2024/04/17 11:20:04;;;;;;;7.17;5.30;;;10.70;99.90;;;;;;5472642;26;20447;-74
2024/04/17 11:22:34;;;;;;;5.20;4.70;;;10.80;99.90;;;;;;5468143;26;20513;-75
2024/04/17 11:25:06;;;;;;;4.63;4.33;;;10.80;99.90;;;;;;5467960;26;20881;-76
2024/04/17 11:27:34;;;;;;;6.17;5.60;;;10.70;99.90;;;;;;5468369;26;20462;-76
2024/04/17 11:30:04;;;;;;;9.57;5.07;;;10.70;99.90;;;;;;5471494;26;20521;-75
2024/04/17 11:32:34;;;;;;;5.27;4.77;;;10.70;99.90;;;;;;5463187;26;20510;-74
2024/04/17 11:35:14;;;;;;;5.50;4.77;;;10.70;99.90;;;;;;5466670;26;20826;-71
2024/04/17 11:37:45;;;;;;;4.77;4.43;;;10.60;99.90;;;;;;5471992;26;21105;-78
2024/04/17 11:40:16;;;;;;;4.97;4.57;;;10.60;99.90;;;;;;5468466;26;20470;-76
2024/04/17 11:42:44;;;;;;;8.43;5.20;;;10.60;99.90;;;;;;5470525;26;20519;-77
2024/04/17 11:45:15;;;;;;;5.00;4.40;;;10.60;99.90;;;;;;5467503;26;20509;-76
2024/04/17 11:47:45;;;;;;;5.30;4.80;;;10.50;99.90;;;;;;5467320;26;20519;-76
2024/04/17 11:50:15;;;;;;;4.63;4.23;;;10.60;99.90;;;;;;5469563;26;20496;-72
2024/04/17 11:52:42;;;;;;;4.30;3.90;;;10.50;99.90;;;;;;5468951;26;20581;-75
2024/04/17 11:55:12;;;;;;;4.33;3.93;;;10.50;99.90;;;;;;5471737;26;21059;-75
2024/04/17 11:57:40;;;;;;;6.00;4.33;;;10.60;99.90;;;;;;5469044;26;20507;-75
2024/04/17 12:00:11;;;;;;;6.20;5.20;;;10.70;99.90;;;;;;5468010;26;20472;-73
2024/04/17 12:02:39;;;;;;;4.27;4.00;;;10.70;99.90;;;;;;5465110;26;20527;-78
2024/04/17 12:05:11;;;;;;;8.00;5.27;;;10.70;99.90;;;;;;5468345;26;20589;-74
2024/04/17 12:07:41;;;;;;;5.17;4.33;;;10.80;99.90;;;;;;5469103;26;20514;-77
2024/04/17 12:10:11;;;;;;;5.17;3.90;;;10.90;99.90;;;;;;5467632;26;20465;-73
2024/04/17 12:12:39;;;;;;;4.47;4.17;;;11.00;99.90;;;;;;5469392;26;20589;-74
2024/04/17 12:15:09;;;;;;;6.93;4.33;;;11.20;99.90;;;;;;5468678;26;20466;-73
2024/04/17 12:17:37;;;;;;;4.83;4.40;;;11.20;99.90;;;;;;5468393;26;20520;-78
2024/04/17 12:20:13;;;;;;;4.50;4.10;;;11.20;99.90;;;;;;5467367;26;20475;-79
2024/04/17 12:22:40;;;;;;;3.97;3.60;;;11.10;99.90;;;;;;5464723;26;20475;-79
2024/04/17 12:27:56;;;;;;;5.20;4.20;;;11.10;99.90;;;;;;5469343;26;20458;-75
2024/04/17 12:30:26;;;;;;;3.60;3.30;;;10.90;99.90;;;;;;5463449;26;20455;-73
2024/04/17 12:32:56;;;;;;;3.90;3.60;;;10.90;99.90;;;;;;5463298;26;20483;-77
2024/04/17 12:35:29;;;;;;;4.37;3.70;;;10.90;99.90;;;;;;5465628;26;21122;-77
2024/04/17 12:37:59;;;;;;;4.17;3.77;;;10.70;99.90;;;;;;5463624;26;21040;-76
2024/04/17 12:40:29;;;;;;;2.60;2.47;;;10.70;99.90;;;;;;5459479;26;20469;-74
2024/04/17 12:42:57;;;;;;;3.07;2.97;;;10.40;99.90;;;;;;5462416;26;20514;-80
2024/04/17 12:45:27;;;;;;;2.53;2.33;;;10.10;99.90;;;;;;5465275;26;20583;-75
2024/04/17 12:47:57;;;;;;;1.93;1.83;;;9.90;99.90;;;;;;5466590;26;20475;-78
2024/04/17 12:50:30;;;;;;;2.30;2.20;;;9.60;99.90;;;;;;5460363;26;20465;-75
2024/04/17 12:52:58;;;;;;;2.30;2.10;;;9.50;99.90;;;;;;5467934;26;20509;-77
2024/04/17 12:55:28;;;;;;;2.70;2.60;;;9.40;99.90;;;;;;5467020;26;20522;-77
2024/04/17 12:57:55;;;;;;;2.37;2.13;;;9.40;99.90;;;;;;5471628;26;20577;-81
2024/04/17 13:00:25;;;;;;;2.00;1.90;;;9.20;99.90;;;;;;5468133;26;20565;-77
2024/04/17 13:02:55;;;;;;;2.30;2.10;;;9.30;99.90;;;;;;5466244;26;20475;-74
2024/04/17 13:05:25;;;;;;;2.10;2.00;;;9.30;99.90;;;;;;5462146;26;20523;-74
2024/04/17 13:07:55;;;;;;;2.20;2.10;;;9.20;99.90;;;;;;5463489;26;20472;-74
2024/04/17 13:10:27;;;;;;;2.20;2.10;;;9.20;99.90;;;;;;5466147;26;20461;-75